Yotvata, Israel
Current Conditions -  °F | °C
As of 12:00 AM on Thursday 29 Jan 2015 (Local Time) from OJAQ Reporting Station
Few Clouds Few Clouds  
Wind Chill: 63°   Ceiling: Unl
Heat Index: 63°   Visibility: 6mi
Dew Point: 43°   Wind: 12mph
Humidity: 48%   Direction: 350°N
Pressure: 29.94"   Gusts: NA
Location:  29.91°N, 35.07°E
Report Text: OJAQ 282100Z 35010KT 9999 FEW030 17/06 Q1014 NOSIG
Loading
Personal Weather Stations






























Interactive Weather Map New forecast layout! Learn more

10-Day Weather Forecast

Advertisements
Track Severe Weather on mobile